Time;durP1;ratioP1;P1;durP2;ratioP2;P2;SDS_P1;SDS_P2;PMS_P1;PMS_P2;Temp;Humidity;BMP_temperature;BMP_pressure;BME280_temperature;BME280_humidity;BME280_pressure;Samples;Min_cycle;Max_cycle;Signal;HPM_P1;HPM_P2
2021/09/13 00:01:55;;;;;;;13.43;10.27;;;;;;;14.66;100.00;100423.06;5086927;28;20325;-75
2021/09/13 00:04:22;;;;;;;13.52;10.02;;;;;;;14.62;100.00;100422.41;5070310;28;20049;-75
2021/09/13 00:06:49;;;;;;;15.77;9.90;;;;;;;14.68;100.00;100431.84;5054183;28;20144;-73
2021/09/13 00:09:16;;;;;;;14.68;9.90;;;;;;;14.67;100.00;100430.13;5054193;28;20319;-74
2021/09/13 00:11:43;;;;;;;15.98;10.40;;;;;;;14.65;100.00;100427.56;5087463;28;20049;-74
2021/09/13 00:14:10;;;;;;;16.92;9.93;;;;;;;14.62;100.00;100426.91;5070859;28;20469;-73
2021/09/13 00:16:37;;;;;;;16.55;10.75;;;;;;;14.62;100.00;100425.09;5055349;28;20073;-74
2021/09/13 00:19:05;;;;;;;16.40;10.80;;;;;;;14.47;100.00;100400.22;5055104;28;20060;-74
2021/09/13 00:21:33;;;;;;;13.40;10.02;;;;;;;14.60;100.00;100418.97;5054013;28;20377;-74
2021/09/13 00:24:02;;;;;;;16.20;11.25;;;;;;;14.66;100.00;100428.41;5055146;28;20041;-74
2021/09/13 00:26:30;;;;;;;16.27;11.55;;;;;;;14.63;100.00;100425.94;5070535;28;20132;-74
2021/09/13 00:28:57;;;;;;;16.65;11.60;;;;;;;14.60;100.00;100421.66;5055009;28;20056;-74
2021/09/13 00:31:24;;;;;;;16.10;11.38;;;;;;;14.48;100.00;100403.75;5087333;28;20160;-73
2021/09/13 00:33:52;;;;;;;14.07;11.68;;;;;;;14.55;100.00;100421.16;5054899;28;20361;-74
2021/09/13 00:36:20;;;;;;;13.82;10.95;;;;;;;14.51;100.00;100414.28;5053789;28;20095;-74
2021/09/13 00:38:48;;;;;;;15.77;10.90;;;;;;;14.44;100.00;100404.97;5054770;28;20053;-73
2021/09/13 00:41:15;;;;;;;16.38;11.68;;;;;;;14.50;100.00;100416.09;5070490;28;20136;-74
2021/09/13 00:43:44;;;;;;;15.70;11.18;;;;;;;14.52;100.00;100416.88;5053744;28;20049;-75
2021/09/13 00:46:11;;;;;;;14.98;11.55;;;;;;;14.44;100.00;100410.34;5070066;28;20072;-75
2021/09/13 00:48:43;;;;;;;14.02;11.57;;;;;;;14.30;100.00;100392.53;5069755;28;20075;-73
2021/09/13 00:51:11;;;;;;;13.85;11.23;;;;;;;14.37;100.00;100412.59;5037046;28;20175;-73
2021/09/13 00:53:38;;;;;;;17.83;11.57;;;;;;;14.33;100.00;100408.44;5053616;28;20041;-73
2021/09/13 00:56:07;;;;;;;15.30;12.00;;;;;;;14.28;100.00;100407.91;5053570;28;20041;-73
2021/09/13 00:58:35;;;;;;;14.93;11.75;;;;;;;14.25;100.00;100403.63;5054557;28;20053;-74
2021/09/13 01:01:03;;;;;;;17.90;12.20;;;;;;;14.22;100.00;100404.69;5053349;28;20048;-73
2021/09/13 01:03:32;;;;;;;13.98;11.32;;;;;;;14.20;100.00;100406.66;5052888;28;20095;-73
2021/09/13 01:05:59;;;;;;;13.50;11.02;;;;;;;14.18;100.00;100396.97;5053661;28;20068;-74
2021/09/13 01:08:29;;;;;;;;;;;;;;;14.19;100.00;100399.56;5070703;28;20376;-74
2021/09/13 01:10:56;;;;;;;13.52;11.05;;;;;;;14.13;100.00;100383.91;5069900;28;19928;-74
2021/09/13 01:13:23;;;;;;;13.05;11.05;;;;;;;14.06;100.00;100382.63;5053293;28;20049;-74
2021/09/13 01:15:50;;;;;;;14.23;11.25;;;;;;;13.95;100.00;100376.19;5053461;28;20051;-76
2021/09/13 01:18:18;;;;;;;15.85;12.23;;;;;;;13.97;100.00;100385.03;5054432;28;20047;-76
2021/09/13 01:20:45;;;;;;;14.80;11.63;;;;;;;13.91;100.00;100373.84;5070328;28;20089;-74
2021/09/13 01:23:26;;;;;;;17.15;13.20;;;;;;;13.88;100.00;100379.47;5053291;28;20045;-76
2021/09/13 01:26:04;;;;;;;18.70;11.23;;;;;;;13.82;100.00;100378.91;5054653;28;20113;-73
2021/09/13 01:28:32;;;;;;;12.90;11.52;;;;;;;13.83;100.00;100377.06;5053384;28;20386;-74
2021/09/13 01:31:01;;;;;;;17.27;11.35;;;;;;;13.84;100.00;100384.19;5069833;28;20045;-74
2021/09/13 01:33:31;;;;;;;15.13;10.82;;;;;;;13.82;100.00;100378.06;5053230;28;20113;-75
2021/09/13 01:36:00;;;;;;;17.42;11.93;;;;;;;13.83;100.00;100385.13;5069909;28;20041;-76
2021/09/13 01:38:30;;;;;;;15.50;10.63;;;;;;;13.79;100.00;100386.34;5069897;28;20433;-76
2021/09/13 01:41:00;;;;;;;14.52;11.45;;;;;;;13.74;100.00;100393.84;5069768;28;20141;-74
2021/09/13 01:43:30;;;;;;;16.70;11.73;;;;;;;13.68;100.00;100393.28;5053591;28;20509;-74
2021/09/13 01:45:57;;;;;;;14.50;11.57;;;;;;;13.67;100.00;100390.75;5060707;28;20048;-73
2021/09/13 01:48:25;;;;;;;13.88;11.07;;;;;;;13.50;100.00;100375.84;5064603;28;20053;-73
2021/09/13 01:50:53;;;;;;;17.73;10.98;;;;;;;13.60;100.00;100386.75;5078820;28;20050;-73
2021/09/13 01:53:25;;;;;;;15.15;11.15;;;;;;;13.56;100.00;100386.09;5057951;28;20460;-73
2021/09/13 01:55:52;;;;;;;13.20;10.73;;;;;;;13.44;100.00;100379.75;5057123;28;20041;-77
2021/09/13 01:58:19;;;;;;;17.33;10.88;;;;;;;13.52;100.00;100396.19;5040248;28;20136;-76
2021/09/13 02:00:46;;;;;;;12.45;10.40;;;;;;;13.47;100.00;100395.69;5073419;28;20172;-76
2021/09/13 02:03:13;;;;;;;13.82;10.45;;;;;;;13.47;100.00;100393.00;5073370;28;20048;-75
2021/09/13 02:05:50;;;;;;;13.65;10.48;;;;;;;13.47;100.00;100386.75;5058080;28;20045;-76
2021/09/13 02:08:20;;;;;;;12.82;10.10;;;;;;;13.51;100.00;100391.81;5056478;28;20166;-73
2021/09/13 02:10:47;;;;;;;17.08;10.70;;;;;;;13.36;100.00;100374.06;5057630;28;20446;-75
2021/09/13 02:13:14;;;;;;;15.50;10.48;;;;;;;13.48;100.00;100396.53;5056433;28;20087;-73
2021/09/13 02:15:41;;;;;;;15.18;10.75;;;;;;;13.40;100.00;100386.31;5056563;28;20048;-75
2021/09/13 02:18:13;;;;;;;13.35;10.40;;;;;;;13.38;100.00;100383.72;5040409;28;20064;-75
2021/09/13 02:20:48;;;;;;;13.90;10.43;;;;;;;13.39;100.00;100396.16;5072889;28;20052;-76
2021/09/13 02:23:15;;;;;;;18.52;10.30;;;;;;;13.34;100.00;100398.31;5056014;28;20048;-77
2021/09/13 02:25:42;;;;;;;14.55;10.25;;;;;;;13.26;100.00;100387.25;5055982;28;20095;-73
2021/09/13 02:28:10;;;;;;;17.50;10.30;;;;;;;13.29;100.00;100390.59;5056062;28;20061;-76
2021/09/13 02:30:37;;;;;;;14.57;9.48;;;;;;;13.30;100.00;100386.09;5072201;28;20070;-76
2021/09/13 02:33:04;;;;;;;13.68;9.18;;;;;;;13.18;100.00;100383.28;5089343;28;20083;-74
2021/09/13 02:35:33;;;;;;;11.73;9.80;;;;;;;13.22;100.00;100388.41;5089455;28;20075;-76
2021/09/13 02:38:01;;;;;;;12.20;9.85;;;;;;;13.22;100.00;100383.06;5072281;28;20052;-73
2021/09/13 02:40:27;;;;;;;12.88;8.73;;;;;;;13.18;100.00;100380.59;5089367;28;20071;-74
2021/09/13 02:42:54;;;;;;;14.05;9.73;;;;;;;13.21;100.00;100382.22;5056827;28;20037;-76
2021/09/13 02:45:21;;;;;;;12.68;10.40;;;;;;;13.19;100.00;100378.78;5055567;28;20037;-75
2021/09/13 02:47:48;;;;;;;16.05;9.23;;;;;;;13.21;100.00;100378.66;5072297;28;20041;-74
2021/09/13 02:50:17;;;;;;;16.17;9.35;;;;;;;13.09;100.00;100361.63;5072154;28;20132;-77
2021/09/13 02:52:44;;;;;;;14.43;8.43;;;;;;;13.16;100.00;100373.63;5088924;28;20430;-76
2021/09/13 02:55:12;;;;;;;21.52;10.15;;;;;;;13.17;100.00;100375.34;5072184;28;20048;-74
2021/09/13 02:57:40;;;;;;;15.02;9.13;;;;;;;13.05;100.00;100374.38;5055420;28;20061;-76
2021/09/13 03:00:08;;;;;;;18.02;10.15;;;;;;;13.01;100.00;100364.81;5055307;28;20053;-75
2021/09/13 03:02:43;;;;;;;14.05;10.80;;;;;;;12.98;100.00;100357.00;5055380;28;20140;-74
2021/09/13 03:05:11;;;;;;;12.80;9.73;;;;;;;12.96;100.00;100357.09;5071694;28;20080;-75
2021/09/13 03:07:39;;;;;;;12.23;8.95;;;;;;;12.99;100.00;100367.63;5071980;28;20465;-76
2021/09/13 03:10:07;;;;;;;15.30;9.95;;;;;;;13.00;100.00;100363.09;5071745;28;20048;-76
2021/09/13 03:12:34;;;;;;;12.98;9.90;;;;;;;13.00;100.00;100358.59;5054992;28;20072;-76
2021/09/13 03:15:04;;;;;;;15.27;10.02;;;;;;;12.88;100.00;100349.59;5088646;28;20049;-75
2021/09/13 03:17:32;;;;;;;13.45;9.63;;;;;;;12.88;100.00;100341.56;5055541;28;20052;-77
2021/09/13 03:20:00;;;;;;;20.13;11.88;;;;;;;12.94;100.00;100358.16;5071835;28;20094;-75
2021/09/13 03:22:27;;;;;;;21.45;12.15;;;;;;;12.83;100.00;100335.66;5088568;28;20100;-75
2021/09/13 03:24:53;;;;;;;17.33;14.40;;;;;;;12.86;100.00;100345.28;5071686;28;20130;-73
2021/09/13 03:27:23;;;;;;;21.05;12.82;;;;;;;12.89;100.00;100355.78;5055042;28;20049;-75
2021/09/13 03:29:50;;;;;;;20.00;12.70;;;;;;;12.83;100.00;100357.06;5038492;28;20054;-74
2021/09/13 03:32:17;;;;;;;16.83;12.63;;;;;;;12.74;100.00;100342.47;5062361;28;20123;-73
2021/09/13 03:34:45;;;;;;;20.75;12.65;;;;;;;12.79;100.00;100355.56;5091950;28;20048;-77
2021/09/13 03:37:12;;;;;;;19.80;14.35;;;;;;;12.76;100.00;100355.78;5074736;28;20400;-76
2021/09/13 03:39:38;;;;;;;20.35;14.43;;;;;;;12.62;100.00;100338.81;5074527;28;20094;-74
2021/09/13 03:42:06;;;;;;;18.50;13.13;;;;;;;12.62;100.00;100346.84;5074608;28;20048;-75
2021/09/13 03:44:33;;;;;;;16.83;13.90;;;;;;;12.63;100.00;100361.94;5058307;28;20098;-76
2021/09/13 03:47:14;;;;;;;20.60;15.38;;;;;;;12.67;100.00;100367.09;5074010;28;20043;-75
2021/09/13 03:49:48;;;;;;;21.13;13.73;;;;;;;12.64;100.00;100373.50;5074466;28;20059;-75
2021/09/13 03:52:16;;;;;;;22.40;14.38;;;;;;;12.58;100.00;100360.53;5057972;28;20078;-76
2021/09/13 03:54:43;;;;;;;19.10;14.45;;;;;;;12.64;100.00;100373.50;5058020;28;20047;-76
2021/09/13 03:57:10;;;;;;;19.52;15.30;;;;;;;12.67;100.00;100378.66;5057959;28;20203;-73
2021/09/13 03:59:37;;;;;;;19.70;15.45;;;;;;;12.67;100.00;100372.44;5075421;28;20401;-76
2021/09/13 04:02:04;;;;;;;19.17;15.93;;;;;;;12.66;100.00;100384.13;5053896;28;20063;-74
2021/09/13 04:04:33;;;;;;;18.08;15.23;;;;;;;12.59;100.00;100375.66;5054141;28;20060;-74
2021/09/13 04:12:56;;;;;;;21.67;14.50;;;;;;;12.58;100.00;100382.81;5059748;28;20056;-74
2021/09/13 04:15:45;;;;;;;18.48;14.10;;;;;;;12.60;100.00;100390.75;5060934;28;20045;-73
2021/09/13 04:18:34;;;;;;;17.45;14.32;;;;;;;12.45;100.00;100373.88;5074779;28;20055;-74
2021/09/13 04:21:13;;;;;;;19.00;13.32;;;;;;;12.35;100.00;100370.94;5059439;28;20346;-75
2021/09/13 04:23:57;;;;;;;19.75;14.25;;;;;;;12.38;100.00;100383.25;5060614;28;20159;-75
2021/09/13 04:26:47;;;;;;;20.90;14.45;;;;;;;12.49;100.00;100396.81;5071860;28;20056;-74
2021/09/13 04:29:37;;;;;;;18.95;15.48;;;;;;;12.44;100.00;100401.59;5046134;28;20110;-75
2021/09/13 04:32:22;;;;;;;22.25;14.25;;;;;;;12.41;100.00;100393.78;5073484;28;20066;-77
2021/09/13 04:35:10;;;;;;;20.90;15.38;;;;;;;12.44;100.00;100398.91;5074775;28;20053;-76
2021/09/13 04:37:58;;;;;;;19.85;14.55;;;;;;;12.44;100.00;100382.84;5074642;28;20369;-77
2021/09/13 04:40:48;;;;;;;18.58;15.80;;;;;;;12.39;100.00;100383.16;5071702;28;20056;-76
2021/09/13 04:43:33;;;;;;;20.17;15.32;;;;;;;12.34;100.00;100391.50;5055023;28;20048;-75
2021/09/13 04:46:15;;;;;;;23.73;15.18;;;;;;;12.26;100.00;100383.09;5050712;28;20434;-76
2021/09/13 04:49:08;;;;;;;22.83;15.65;;;;;;;12.33;100.00;100386.25;5025741;28;20346;-78
2021/09/13 04:51:53;;;;;;;20.67;17.42;;;;;;;12.31;100.00;100386.31;5054447;28;20051;-76
2021/09/13 04:54:41;;;;;;;21.05;16.20;;;;;;;12.32;100.00;100385.38;5070241;28;20231;-76
2021/09/13 04:57:08;;;;;;;22.15;17.02;;;;;;;12.34;100.00;100383.47;5052976;28;20044;-76
2021/09/13 04:59:35;;;;;;;22.13;17.02;;;;;;;12.35;100.00;100384.31;5052993;28;20337;-76
2021/09/13 05:02:03;;;;;;;20.88;16.83;;;;;;;12.34;100.00;100383.47;5054457;28;20049;-75
2021/09/13 05:04:32;;;;;;;23.63;17.50;;;;;;;12.27;100.00;100379.47;5052724;28;20052;-77
2021/09/13 05:06:58;;;;;;;25.38;17.67;;;;;;;12.29;100.00;100377.56;5086637;28;20461;-76
2021/09/13 05:09:26;;;;;;;22.13;17.80;;;;;;;12.20;100.00;100380.84;5054104;28;20441;-74
2021/09/13 05:11:53;;;;;;;24.02;17.42;;;;;;;12.23;100.00;100380.63;5086011;28;20049;-72
2021/09/13 05:14:23;;;;;;;23.25;17.73;;;;;;;12.20;100.00;100384.34;5068922;28;20480;-74
2021/09/13 05:16:52;;;;;;;24.08;17.95;;;;;;;12.17;100.00;100386.38;5070871;28;20132;-78
2021/09/13 05:19:23;;;;;;;23.08;18.30;;;;;;;12.16;100.00;100385.50;5066697;28;20045;-72
2021/09/13 05:21:50;;;;;;;21.67;17.10;;;;;;;12.14;100.00;100392.78;5052749;28;20048;-72
2021/09/13 05:24:19;;;;;;;19.70;16.88;;;;;;;12.16;100.00;100387.31;5036661;28;20447;-73
2021/09/13 05:26:52;;;;;;;22.70;17.85;;;;;;;12.12;100.00;100388.47;5072605;28;20037;-74
2021/09/13 05:29:19;;;;;;;23.38;17.52;;;;;;;12.09;100.00;100385.03;5058302;28;20071;-73
2021/09/13 05:31:46;;;;;;;21.55;16.63;;;;;;;12.14;100.00;100387.41;5073849;28;20121;-76
2021/09/13 05:34:14;;;;;;;23.27;17.15;;;;;;;12.12;100.00;100389.34;5071839;28;20374;-74
2021/09/13 05:36:42;;;;;;;20.83;16.83;;;;;;;12.06;100.00;100374.56;5040353;28;20075;-72
2021/09/13 05:39:09;;;;;;;21.25;16.25;;;;;;;12.17;100.00;100383.69;5056739;28;20098;-74
2021/09/13 05:41:48;;;;;;;21.52;16.02;;;;;;;12.13;100.00;100377.69;5056093;28;20094;-72
2021/09/13 05:44:19;;;;;;;20.92;16.77;;;;;;;12.21;100.00;100382.53;5072126;28;20040;-73
2021/09/13 05:46:47;;;;;;;19.58;16.08;;;;;;;12.29;100.00;100390.94;5023290;28;20049;-73
2021/09/13 05:49:14;;;;;;;23.67;16.52;;;;;;;12.21;100.00;100385.22;5056511;28;20072;-73
2021/09/13 05:51:51;;;;;;;17.83;14.80;;;;;;;12.27;100.00;100384.81;5039975;28;20048;-72
2021/09/13 05:54:28;;;;;;;19.00;16.05;;;;;;;12.30;100.00;100392.66;5070788;28;20045;-73
2021/09/13 05:56:56;;;;;;;21.85;15.18;;;;;;;12.29;100.00;100377.56;5056593;28;20041;-72
2021/09/13 05:59:24;;;;;;;20.75;16.23;;;;;;;12.31;100.00;100380.97;5088972;28;20099;-71
2021/09/13 06:01:59;;;;;;;22.60;16.83;;;;;;;12.35;100.00;100393.22;5072769;28;20112;-73
2021/09/13 06:04:32;;;;;;;21.05;15.85;;;;;;;12.35;100.00;100393.22;5056142;28;20138;-72
2021/09/13 06:07:00;;;;;;;20.48;16.02;;;;;;;12.26;100.00;100374.22;5073049;28;20048;-71
2021/09/13 06:09:28;;;;;;;20.50;14.52;;;;;;;12.46;100.00;100407.69;5071641;28;20155;-75
2021/09/13 06:11:56;;;;;;;22.15;15.98;;;;;;;12.50;100.00;100404.72;5054745;28;20423;-71
2021/09/13 06:14:25;;;;;;;19.58;15.07;;;;;;;12.50;100.00;100402.03;5087795;28;20041;-73
2021/09/13 06:16:57;;;;;;;20.58;15.02;;;;;;;12.63;100.00;100398.56;5087660;28;20385;-78
2021/09/13 06:19:25;;;;;;;20.98;15.52;;;;;;;12.70;100.00;100409.75;5055208;28;20049;-76
2021/09/13 06:21:52;;;;;;;23.58;15.70;;;;;;;12.78;100.00;100415.44;5056026;28;20056;-74
2021/09/13 06:24:23;;;;;;;21.17;15.70;;;;;;;12.80;100.00;100412.66;5072547;28;20412;-72
2021/09/13 06:26:50;;;;;;;22.13;15.13;;;;;;;12.93;100.00;100415.38;5055847;28;20442;-75
2021/09/13 06:29:17;;;;;;;19.73;14.80;;;;;;;12.98;100.00;100422.16;5072851;28;20049;-74
2021/09/13 06:31:44;;;;;;;18.75;14.63;;;;;;;13.01;100.00;100418.41;5070979;28;20072;-74
2021/09/13 06:34:15;;;;;;;18.60;14.30;;;;;;;13.08;100.00;100429.56;5087732;28;20045;-75
2021/09/13 06:36:45;;;;;;;21.45;14.88;;;;;;;13.14;100.00;100426.47;5055091;28;20140;-77
2021/09/13 06:39:14;;;;;;;23.35;15.70;;;;;;;13.18;100.00;100425.28;5055700;28;20041;-72
2021/09/13 06:41:40;;;;;;;21.42;15.40;;;;;;;13.27;100.00;100422.00;5056871;28;20049;-73
2021/09/13 06:44:10;;;;;;;16.00;11.77;;;;;;;13.31;100.00;100431.53;5041741;28;20132;-71
2021/09/13 06:49:13;;;;;;;23.73;14.90;;;;;;;13.39;100.00;100428.34;5043701;28;20065;-76
2021/09/13 06:51:40;;;;;;;23.30;15.68;;;;;;;13.43;100.00;100440.59;5040123;28;20049;-74
2021/09/13 06:54:07;;;;;;;18.25;14.65;;;;;;;13.49;100.00;100435.78;5056501;28;20041;-75
2021/09/13 06:56:34;;;;;;;19.95;14.70;;;;;;;13.58;100.00;100433.31;5072859;28;20364;-74
2021/09/13 06:59:01;;;;;;;24.55;15.20;;;;;;;13.62;100.00;100430.44;5056607;28;20045;-73
2021/09/13 07:01:31;;;;;;;24.70;15.23;;;;;;;13.67;100.00;100430.97;5056769;28;20048;-75
2021/09/13 07:04:00;;;;;;;;;;;;;;;13.73;100.00;100435.88;5055514;28;20061;-72
2021/09/13 07:06:30;;;;;;;23.33;15.48;;;;;;;13.79;100.00;100429.25;5056430;28;19924;-73
2021/09/13 07:09:02;;;;;;;22.63;15.85;;;;;;;13.78;100.00;100419.50;5056643;28;20047;-73
2021/09/13 07:11:29;;;;;;;23.30;16.17;;;;;;;13.86;100.00;100425.16;5071679;28;20061;-73
2021/09/13 07:13:56;;;;;;;19.27;16.40;;;;;;;13.93;100.00;100426.44;5056195;28;20048;-73
2021/09/13 07:16:24;;;;;;;27.10;16.80;;;;;;;13.95;100.00;100432.56;5055631;28;20149;-71
2021/09/13 07:18:54;;;;;;;25.13;16.30;;;;;;;14.06;100.00;100430.94;5039170;28;20059;-69
2021/09/13 07:21:21;;;;;;;31.92;18.65;;;;;;;14.15;100.00;100426.75;5054987;28;20695;-73
2021/09/13 07:23:48;;;;;;;24.80;16.90;;;;;;;14.19;100.00;100418.34;5055952;28;20128;-72
2021/09/13 07:26:15;;;;;;;30.65;16.83;;;;;;;14.26;100.00;100424.13;5055725;28;20498;-70
2021/09/13 07:28:41;;;;;;;23.30;16.65;;;;;;;14.40;100.00;100425.81;5088080;28;20040;-72
2021/09/13 07:31:08;;;;;;;24.50;17.90;;;;;;;14.39;100.00;100416.06;5054992;28;20345;-73
2021/09/13 07:33:35;;;;;;;22.90;17.75;;;;;;;14.41;100.00;100406.03;5055346;28;20083;-73
2021/09/13 07:36:04;;;;;;;26.27;17.73;;;;;;;14.55;100.00;100415.78;5052833;28;20041;-74
2021/09/13 07:38:31;;;;;;;27.60;17.77;;;;;;;14.55;100.00;100417.59;5052024;28;20104;-72
2021/09/13 07:40:58;;;;;;;28.55;18.35;;;;;;;14.64;100.00;100424.97;5068801;28;20033;-73
2021/09/13 07:43:28;;;;;;;28.33;18.17;;;;;;;14.68;100.00;100413.03;5052191;28;20132;-71
2021/09/13 07:45:59;;;;;;;;;;;;;;;14.74;100.00;100427.88;5053866;28;20118;-72
2021/09/13 07:48:32;;;;;;;32.50;22.98;;;;;;;14.73;100.00;100418.94;5068475;28;20055;-74
2021/09/13 07:51:00;;;;;;;46.03;32.15;;;;;;;14.66;100.00;100418.50;5053409;28;20465;-74
2021/09/13 07:53:27;;;;;;;47.20;29.33;;;;;;;14.82;100.00;100438.06;5054078;28;20090;-74
2021/09/13 07:55:54;;;;;;;44.47;30.20;;;;;;;14.78;100.00;100427.50;5051548;28;20036;-74
2021/09/13 07:58:21;;;;;;;50.08;33.35;;;;;;;14.83;100.00;100426.31;5054058;28;20045;-74
2021/09/13 08:00:48;;;;;;;50.22;30.60;;;;;;;14.89;100.00;100428.56;5054919;28;20045;-73
2021/09/13 08:03:16;;;;;;;43.13;28.02;;;;;;;15.02;100.00;100434.72;5054855;28;20391;-73
2021/09/13 08:05:43;;;;;;;42.70;30.83;;;;;;;15.10;100.00;100435.97;5054712;28;20041;-74
2021/09/13 08:08:12;;;;;;;43.03;28.67;;;;;;;15.17;100.00;100437.22;5054681;28;20044;-74
2021/09/13 08:10:40;;;;;;;47.00;34.42;;;;;;;15.29;100.00;100440.78;5054647;28;20037;-74
2021/09/13 08:13:08;;;;;;;51.85;34.42;;;;;;;15.39;100.00;100444.50;5063339;28;20039;-74
2021/09/13 08:15:35;;;;;;;54.45;34.92;;;;;;;15.40;100.00;100432.75;5052965;28;20098;-74
2021/09/13 08:18:02;;;;;;;55.70;37.58;;;;;;;15.44;100.00;100433.38;5054922;28;20369;-74
2021/09/13 08:20:30;;;;;;;58.53;40.28;;;;;;;15.53;99.39;100448.78;5054559;28;20450;-74
2021/09/13 08:23:00;;;;;;;61.63;37.05;;;;;;;15.60;99.13;100450.03;5054987;28;20049;-74
2021/09/13 08:25:29;;;;;;;55.35;34.30;;;;;;;15.64;98.60;100456.06;5053828;28;20098;-74
2021/09/13 08:28:19;;;;;;;48.78;31.83;;;;;;;15.70;98.46;100444.78;5087137;28;20052;-72
2021/09/13 08:30:49;;;;;;;46.90;30.20;;;;;;;15.72;98.32;100450.06;5054551;28;20041;-74
2021/09/13 08:33:17;;;;;;;57.17;35.05;;;;;;;15.79;98.17;100448.59;5054642;28;20052;-76
2021/09/13 08:35:44;;;;;;;53.25;33.45;;;;;;;15.88;97.93;100441.66;5054622;28;20433;-75
2021/09/13 08:38:11;;;;;;;49.67;30.45;;;;;;;15.81;98.03;100427.81;5053376;28;20072;-75
2021/09/13 08:40:38;;;;;;;45.88;27.23;;;;;;;15.99;97.89;100451.59;5053414;28;20045;-74
2021/09/13 08:43:05;;;;;;;38.47;27.92;;;;;;;16.11;96.52;100447.91;5054761;28;20338;-75
2021/09/13 08:53:19;;;;;;;35.95;24.33;;;;;;;16.36;95.83;100458.56;5034635;28;20107;-76
2021/09/13 08:55:46;;;;;;;38.75;23.83;;;;;;;16.43;96.12;100452.56;5034855;28;20045;-76
2021/09/13 08:58:21;;;;;;;36.70;24.05;;;;;;;16.54;95.44;100453.50;5050413;28;20057;-75
2021/09/13 09:00:50;;;;;;;34.63;22.88;;;;;;;16.60;95.22;100446.78;5067555;28;20045;-75
2021/09/13 09:03:18;;;;;;;33.50;23.45;;;;;;;16.65;95.44;100450.78;5034721;28;20450;-75
2021/09/13 09:05:48;;;;;;;36.17;25.13;;;;;;;16.61;95.04;100430.47;5033121;28;20053;-73
2021/09/13 09:08:29;;;;;;;34.20;21.88;;;;;;;16.85;93.98;100453.69;5034294;28;20065;-74
2021/09/13 09:11:02;;;;;;;35.28;23.58;;;;;;;16.95;93.82;100461.84;5034325;28;20049;-74
2021/09/13 09:13:44;;;;;;;38.15;24.77;;;;;;;17.06;92.48;100458.28;5034347;28;20128;-75
2021/09/13 09:16:14;;;;;;;37.90;24.98;;;;;;;17.11;90.88;100456.06;5034326;28;20065;-76
2021/09/13 09:18:49;;;;;;;43.85;23.83;;;;;;;17.11;91.87;100450.69;5034448;28;20169;-75
2021/09/13 09:21:28;;;;;;;36.75;23.80;;;;;;;17.16;92.02;100444.91;5034325;28;20120;-75
2021/09/13 09:24:03;;;;;;;35.60;25.08;;;;;;;17.33;90.33;100449.69;5034108;28;20060;-75
2021/09/13 09:26:32;;;;;;;31.08;23.60;;;;;;;17.36;90.08;100440.47;5033145;28;20041;-73
2021/09/13 09:29:01;;;;;;;37.58;24.08;;;;;;;17.53;89.22;100459.78;5034393;28;20042;-73
2021/09/13 09:31:38;;;;;;;37.08;24.10;;;;;;;17.63;89.89;100463.38;5033035;28;20350;-73
2021/09/13 09:34:20;;;;;;;33.30;22.77;;;;;;;17.69;88.39;100460.16;5051113;28;20033;-72
2021/09/13 09:36:59;;;;;;;41.08;25.15;;;;;;;17.77;87.46;100457.63;5053863;28;20063;-74
2021/09/13 09:39:43;;;;;;;33.88;22.85;;;;;;;17.81;87.09;100460.94;5053251;28;20049;-74
2021/09/13 09:42:13;;;;;;;37.33;24.48;;;;;;;17.85;87.23;100465.09;5053005;28;20055;-73
2021/09/13 09:44:46;;;;;;;39.90;26.23;;;;;;;17.97;86.27;100463.16;5052981;28;20068;-73
2021/09/13 09:47:15;;;;;;;39.05;25.42;;;;;;;18.01;86.05;100458.31;5052989;28;20052;-73
2021/09/13 09:49:53;;;;;;;35.10;24.38;;;;;;;18.15;85.75;100459.84;5052950;28;20117;-73
2021/09/13 09:52:39;;;;;;;33.33;23.40;;;;;;;18.26;85.62;100467.00;5052788;28;20048;-73
2021/09/13 09:55:19;;;;;;;36.33;24.23;;;;;;;18.32;83.92;100466.47;5053807;28;20385;-74
2021/09/13 09:58:04;;;;;;;32.25;22.63;;;;;;;18.33;82.96;100454.66;5053730;28;20049;-74
2021/09/13 10:00:37;;;;;;;36.03;24.67;;;;;;;18.45;82.48;100452.69;5053655;28;20116;-73
2021/09/13 10:03:05;;;;;;;40.42;25.15;;;;;;;18.59;82.93;100448.75;5053783;28;20037;-74
2021/09/13 10:05:33;;;;;;;38.33;23.83;;;;;;;18.67;82.07;100443.50;5068121;28;20072;-71
2021/09/13 10:08:01;;;;;;;43.03;24.95;;;;;;;18.83;81.13;100442.97;5068432;28;20052;-74
2021/09/13 10:10:30;;;;;;;35.08;24.08;;;;;;;19.00;81.04;100429.72;5053771;28;20055;-74
2021/09/13 10:12:59;;;;;;;38.67;25.00;;;;;;;19.08;79.05;100434.44;5055756;28;20091;-72
2021/09/13 10:15:27;;;;;;;35.55;24.52;;;;;;;19.07;79.27;100428.19;5087728;28;20128;-74
2021/09/13 10:17:59;;;;;;;36.10;25.50;;;;;;;19.09;78.74;100423.50;5055465;28;20041;-74
2021/09/13 10:20:26;;;;;;;36.53;25.58;;;;;;;19.08;79.80;100429.91;5055333;28;20041;-72
2021/09/13 10:22:55;;;;;;;32.25;23.42;;;;;;;19.20;80.61;100425.19;5054354;28;20124;-72
2021/09/13 10:25:28;;;;;;;35.05;25.63;;;;;;;19.18;78.27;100418.22;5055991;28;20041;-73
2021/09/13 10:28:03;;;;;;;36.72;25.15;;;;;;;19.18;77.77;100412.81;5055066;28;20045;-73
2021/09/13 10:30:30;;;;;;;38.25;25.00;;;;;;;19.34;79.34;100423.88;5056764;28;20404;-72
2021/09/13 10:33:12;;;;;;;38.40;24.38;;;;;;;19.45;78.53;100425.56;5089044;28;20049;-73
2021/09/13 10:36:05;;;;;;;35.83;24.45;;;;;;;19.54;77.84;100418.44;5054171;28;20072;-72
2021/09/13 10:38:47;;;;;;;36.92;25.42;;;;;;;19.70;77.44;100419.66;5056398;28;20033;-72
2021/09/13 10:41:52;;;;;;;35.42;25.25;;;;;;;19.51;76.46;100419.56;5071694;28;20033;-72
2021/09/13 10:44:36;;;;;;;43.75;27.90;;;;;;;19.49;76.23;100424.28;5056418;28;20041;-72
2021/09/13 10:47:04;;;;;;;31.92;22.80;;;;;;;19.51;77.71;100416.88;5056343;28;20099;-72
2021/09/13 10:49:32;;;;;;;33.10;23.08;;;;;;;19.62;75.45;100417.72;5056533;28;20044;-72
2021/09/13 10:52:27;;;;;;;40.63;23.55;;;;;;;19.84;75.10;100410.22;5056488;28;20048;-72
2021/09/13 10:55:09;;;;;;;35.55;23.90;;;;;;;19.95;74.11;100407.38;5056138;28;20379;-73
2021/09/13 10:57:59;;;;;;;33.22;22.80;;;;;;;20.08;74.52;100404.31;5056161;28;20099;-72
2021/09/13 11:00:44;;;;;;;29.40;21.05;;;;;;;20.31;73.47;100403.88;5056434;28;20048;-72
2021/09/13 11:03:24;;;;;;;29.00;22.80;;;;;;;20.48;72.33;100402.22;5056495;28;20102;-73
2021/09/13 11:06:13;;;;;;;26.60;19.52;;;;;;;20.80;68.76;100402.72;5055207;28;20131;-72
2021/09/13 11:08:43;;;;;;;29.88;20.35;;;;;;;20.94;68.84;100406.78;5056300;28;20416;-72
2021/09/13 11:11:14;;;;;;;27.57;18.93;;;;;;;20.91;69.50;100391.66;5055076;28;20056;-72
2021/09/13 11:13:44;;;;;;;27.63;19.92;;;;;;;20.99;68.66;100402.59;5056857;28;20052;-73
2021/09/13 11:16:16;;;;;;;31.55;19.13;;;;;;;21.06;69.39;100396.53;5055657;28;20047;-72
2021/09/13 11:18:46;;;;;;;31.48;21.85;;;;;;;21.05;67.68;100390.25;5070016;28;20701;-73
2021/09/13 11:21:25;;;;;;;33.58;23.33;;;;;;;21.09;67.96;100386.22;5054462;28;20124;-73
2021/09/13 11:24:11;;;;;;;30.13;21.58;;;;;;;21.11;67.76;100384.22;5070487;28;20429;-73
2021/09/13 11:26:42;;;;;;;36.65;21.65;;;;;;;21.24;66.31;100383.78;5054898;28;20041;-73
2021/09/13 11:29:23;;;;;;;27.58;20.98;;;;;;;21.09;65.93;100379.94;5054863;28;20041;-73
2021/09/13 11:31:55;;;;;;;32.15;23.23;;;;;;;21.03;66.22;100371.41;5055637;28;20470;-73
2021/09/13 11:34:31;;;;;;;29.83;22.05;;;;;;;21.11;66.35;100386.06;5055752;28;20032;-72
2021/09/13 11:37:03;;;;;;;28.00;21.58;;;;;;;21.08;66.50;100378.25;5055347;28;20127;-72
2021/09/13 11:39:49;;;;;;;30.73;18.75;;;;;;;21.21;66.99;100383.25;5055681;28;20073;-72